createdAt,value
2022-09-23T00:03:48.977Z,11.00
2022-09-23T00:08:52.814Z,10.90
2022-09-23T00:14:00.086Z,11.50
2022-09-23T00:19:04.522Z,11.50
2022-09-23T00:24:08.316Z,11.00
2022-09-23T00:29:11.574Z,10.30
2022-09-23T00:34:14.659Z,11.30
2022-09-23T00:39:17.717Z,9.80
2022-09-23T00:44:53.855Z,10.20
2022-09-23T00:50:08.618Z,9.80
2022-09-23T00:55:26.705Z,9.60
2022-09-23T01:00:29.882Z,8.90
2022-09-23T01:05:34.648Z,8.80
2022-09-23T01:10:56.098Z,8.40
2022-09-23T01:16:07.850Z,9.00
2022-09-23T01:21:39.417Z,9.10
2022-09-23T01:27:16.512Z,8.30
2022-09-23T01:33:05.496Z,8.60
2022-09-23T01:38:21.039Z,8.70
2022-09-23T01:43:55.080Z,9.50
2022-09-23T01:49:28.297Z,9.20
2022-09-23T01:54:46.503Z,9.40
2022-09-23T01:59:57.185Z,9.70
2022-09-23T02:05:18.973Z,9.60
2022-09-23T02:10:44.414Z,8.60
2022-09-23T02:15:54.122Z,8.90
2022-09-23T02:21:04.873Z,9.20
2022-09-23T02:26:30.673Z,9.80
2022-09-23T02:31:54.041Z,9.40
2022-09-23T02:37:09.233Z,10.20
2022-09-23T02:42:23.684Z,8.90
2022-09-23T02:47:32.741Z,9.60
2022-09-23T02:52:38.882Z,9.40
2022-09-23T02:57:42.130Z,8.50
2022-09-23T03:03:01.154Z,9.70
2022-09-23T03:08:52.180Z,9.70
2022-09-23T03:14:36.013Z,9.30
2022-09-23T03:19:51.177Z,8.80
2022-09-23T03:24:59.590Z,9.80
2022-09-23T03:30:04.641Z,9.30
2022-09-23T03:35:08.650Z,9.80
2022-09-23T03:40:35.603Z,10.50
2022-09-23T03:45:39.200Z,10.30
2022-09-23T03:50:42.344Z,10.90
2022-09-23T03:55:46.810Z,10.60
2022-09-23T04:00:49.943Z,9.50
2022-09-23T04:05:53.053Z,12.00
2022-09-23T04:11:01.732Z,10.80
2022-09-23T04:16:05.134Z,10.50
2022-09-23T04:21:08.263Z,9.90
2022-09-23T04:26:12.539Z,9.60
2022-09-23T04:31:15.606Z,10.70
2022-09-23T04:36:18.818Z,11.50
2022-09-23T04:41:21.989Z,10.50
2022-09-23T04:46:25.114Z,11.80
2022-09-23T04:51:28.941Z,10.70
2022-09-23T05:01:38.689Z,10.00
2022-09-23T05:06:45.338Z,9.90
2022-09-23T05:11:48.683Z,13.40
2022-09-23T05:16:51.601Z,12.30
2022-09-23T05:21:54.460Z,13.10
2022-09-23T05:26:57.297Z,13.90
2022-09-23T05:32:01.678Z,14.50
2022-09-23T05:37:05.433Z,16.50
2022-09-23T05:47:11.193Z,13.40
2022-09-23T05:52:14.062Z,14.50
2022-09-23T05:57:16.929Z,14.80
2022-09-23T06:02:19.841Z,13.60
2022-09-23T06:07:22.817Z,14.50
2022-09-23T06:12:25.687Z,13.00
2022-09-23T06:17:28.571Z,13.60
2022-09-23T06:22:31.728Z,13.70
2022-09-23T06:27:35.053Z,14.90
2022-09-23T06:32:38.005Z,15.00
2022-09-23T06:37:40.907Z,17.30
2022-09-23T06:42:47.108Z,18.10
2022-09-23T06:47:58.299Z,15.70
2022-09-23T06:53:01.237Z,15.40
2022-09-23T06:58:04.138Z,14.80
2022-09-23T07:03:08.935Z,14.00
2022-09-23T07:08:11.811Z,11.80
2022-09-23T07:13:16.401Z,10.10
2022-09-23T07:18:22.019Z,10.60
2022-09-23T07:23:25.928Z,10.30
2022-09-23T07:33:33.415Z,9.40
2022-09-23T07:38:41.628Z,9.30
2022-09-23T07:43:48.136Z,8.60
2022-09-23T07:48:50.999Z,7.70
2022-09-23T07:53:56.882Z,9.70
2022-09-23T07:59:01.747Z,6.60
2022-09-23T08:04:11.091Z,6.90
2022-09-23T08:09:14.943Z,6.00
2022-09-23T08:14:18.552Z,6.90
2022-09-23T08:24:26.674Z,4.80
2022-09-23T08:29:29.713Z,5.80
2022-09-23T08:34:32.562Z,6.30
2022-09-23T08:39:35.461Z,4.30
2022-09-23T08:44:56.876Z,2.80
2022-09-23T08:50:27.002Z,4.00
2022-09-23T08:55:42.119Z,2.80
2022-09-23T09:01:08.116Z,2.00
2022-09-23T09:06:19.043Z,1.80
2022-09-23T09:11:24.258Z,2.30
2022-09-23T09:16:59.846Z,2.60
2022-09-23T09:22:09.527Z,1.90
2022-09-23T09:27:13.945Z,1.70
2022-09-23T09:32:46.476Z,1.80
2022-09-23T09:37:49.484Z,2.60
2022-09-23T09:42:52.497Z,2.10
2022-09-23T09:48:13.631Z,2.50
2022-09-23T09:53:30.604Z,2.30
2022-09-23T09:59:00.434Z,2.10
2022-09-23T10:04:33.993Z,2.10
2022-09-23T10:09:39.840Z,1.90
2022-09-23T10:14:43.789Z,2.20
2022-09-23T10:24:55.203Z,2.20
2022-09-23T10:30:21.848Z,2.10
2022-09-23T10:35:26.685Z,1.90
2022-09-23T10:40:48.286Z,2.50
2022-09-23T10:46:12.705Z,2.60
2022-09-23T10:52:22.412Z,2.10
2022-09-23T10:58:00.130Z,2.50
2022-09-23T11:03:26.047Z,1.90
2022-09-23T11:08:32.061Z,2.20
2022-09-23T11:13:58.989Z,1.80
2022-09-23T11:19:32.429Z,1.50
2022-09-23T11:25:05.221Z,1.90
2022-09-23T11:35:56.936Z,1.70
2022-09-23T11:41:09.991Z,1.60
2022-09-23T11:46:40.912Z,1.80
2022-09-23T11:52:06.051Z,1.80
2022-09-23T11:57:23.258Z,1.70
2022-09-23T12:03:05.842Z,1.90
2022-09-23T12:08:29.443Z,2.00
2022-09-23T12:14:03.556Z,2.10
2022-09-23T12:19:19.235Z,1.40
2022-09-23T12:24:52.143Z,1.50
2022-09-23T12:35:02.846Z,1.70
2022-09-23T12:40:19.218Z,1.80
2022-09-23T12:45:32.769Z,1.80
2022-09-23T12:50:54.994Z,1.60
2022-09-23T12:55:59.642Z,1.60
2022-09-23T13:01:20.245Z,1.80
2022-09-23T13:06:40.238Z,1.50
2022-09-23T13:11:48.025Z,1.80
2022-09-23T13:16:51.859Z,1.90
2022-09-23T13:21:54.662Z,2.40
2022-09-23T13:27:15.781Z,2.10
2022-09-23T13:32:21.792Z,2.30
2022-09-23T13:37:38.886Z,2.10
2022-09-23T13:42:43.944Z,1.80
2022-09-23T13:47:49.207Z,1.80
2022-09-23T13:52:56.649Z,1.60
2022-09-23T13:58:06.122Z,1.70
2022-09-23T14:03:21.731Z,2.20
2022-09-23T14:08:25.544Z,2.30
2022-09-23T14:13:32.293Z,2.20
2022-09-23T14:18:40.533Z,2.40
2022-09-23T14:23:46.431Z,2.50
2022-09-23T14:28:50.512Z,2.80
2022-09-23T14:33:53.405Z,2.20
2022-09-23T14:39:12.486Z,2.50
2022-09-23T14:44:25.158Z,2.70
2022-09-23T14:49:28.176Z,2.40
2022-09-23T14:54:44.289Z,3.20
2022-09-23T14:59:53.732Z,19.70
2022-09-23T15:05:45.257Z,3.30
2022-09-23T15:10:48.873Z,3.50
2022-09-23T15:21:18.581Z,3.40
2022-09-23T15:26:23.925Z,3.70
2022-09-23T15:31:27.337Z,5.20
2022-09-23T15:41:33.751Z,4.50
2022-09-23T15:46:36.646Z,5.00
2022-09-23T15:51:39.631Z,5.90
2022-09-23T15:56:42.632Z,5.70
2022-09-23T16:01:46.010Z,5.90
2022-09-23T16:06:50.521Z,5.20
2022-09-23T16:11:53.347Z,5.00
2022-09-23T16:16:56.328Z,6.50
2022-09-23T16:21:59.284Z,8.60
2022-09-23T16:27:07.874Z,8.10
2022-09-23T16:32:10.752Z,6.90
2022-09-23T16:37:16.515Z,6.10
2022-09-23T16:42:19.970Z,6.20
2022-09-23T16:47:23.034Z,7.20
2022-09-23T16:52:25.956Z,6.90
2022-09-23T16:57:32.513Z,37.90
2022-09-23T17:02:54.065Z,199.60
2022-09-23T17:07:57.654Z,193.90
2022-09-23T17:18:06.499Z,82.00
2022-09-23T17:23:09.515Z,105.80
2022-09-23T17:28:12.362Z,137.50
2022-09-23T17:33:20.052Z,159.50
2022-09-23T17:38:29.335Z,162.00
2022-09-23T17:49:01.837Z,77.20
2022-09-23T17:54:04.833Z,69.40
2022-09-23T17:59:12.726Z,80.70
2022-09-23T18:04:15.647Z,96.80
2022-09-23T18:09:19.550Z,85.00
2022-09-23T18:14:23.589Z,82.70
2022-09-23T18:19:26.913Z,81.20
2022-09-23T18:24:33.336Z,102.00
2022-09-23T18:29:38.036Z,62.10
2022-09-23T18:34:43.486Z,53.90
2022-09-23T18:39:46.454Z,50.00
2022-09-23T18:44:58.825Z,38.40
2022-09-23T18:50:20.447Z,68.00
2022-09-23T18:55:28.677Z,39.10
2022-09-23T19:00:31.669Z,36.70
2022-09-23T19:05:34.682Z,35.90
2022-09-23T19:10:37.549Z,27.40
2022-09-23T19:15:40.471Z,35.20
2022-09-23T19:20:54.270Z,31.50
2022-09-23T19:25:57.157Z,31.70
2022-09-23T19:31:16.815Z,32.00
2022-09-23T19:36:28.622Z,29.60
2022-09-23T19:41:33.612Z,27.50
2022-09-23T19:46:40.880Z,26.10
2022-09-23T19:51:46.499Z,29.80
2022-09-23T19:56:50.265Z,37.50
2022-09-23T20:01:53.337Z,28.40
2022-09-23T20:06:56.250Z,38.70
2022-09-23T20:12:01.281Z,34.50
2022-09-23T20:17:04.152Z,27.80
2022-09-23T20:22:27.493Z,21.80
2022-09-23T20:27:34.960Z,24.10
2022-09-23T20:32:40.744Z,35.90
2022-09-23T20:37:46.925Z,34.10
2022-09-23T20:42:49.847Z,33.60
2022-09-23T20:47:52.739Z,34.20
2022-09-23T20:52:56.460Z,28.40
2022-09-23T21:03:02.957Z,27.70
2022-09-23T21:08:05.889Z,30.40
2022-09-23T21:13:08.789Z,27.70
2022-09-23T21:18:15.583Z,27.80
2022-09-23T21:23:21.953Z,24.90
2022-09-23T21:28:26.967Z,25.10
2022-09-23T21:33:31.041Z,23.20
2022-09-23T21:38:38.046Z,19.50
2022-09-23T21:43:41.658Z,16.50
2022-09-23T21:48:44.517Z,15.20
2022-09-23T21:53:47.580Z,13.60
2022-09-23T21:58:52.833Z,14.80
2022-09-23T22:04:09.571Z,14.30
2022-09-23T22:09:19.418Z,14.20
2022-09-23T22:14:26.046Z,13.50
2022-09-23T22:19:44.225Z,13.70
2022-09-23T22:24:50.096Z,14.10
2022-09-23T22:30:11.439Z,14.10
2022-09-23T22:35:17.913Z,15.50
2022-09-23T22:40:24.364Z,16.50
2022-09-23T22:45:27.774Z,14.90
2022-09-23T22:50:30.807Z,15.60
2022-09-23T22:55:34.418Z,14.60
2022-09-23T23:00:38.214Z,14.20
2022-09-23T23:10:44.344Z,12.90
2022-09-23T23:15:49.001Z,13.70
2022-09-23T23:20:52.108Z,13.90
2022-09-23T23:25:55.309Z,14.30
2022-09-23T23:31:07.647Z,13.10
2022-09-23T23:36:13.548Z,12.80
2022-09-23T23:41:20.405Z,13.80
2022-09-23T23:46:26.586Z,11.50
2022-09-23T23:51:30.155Z,13.10
2022-09-23T23:56:33.288Z,12.30
